Aeroporto :
LOGIN :

Iscrizione | Disclaimer

   EN    FR    IT 

 










Sommario :    VFR   VFR Marginale   IFR   IFR Intensivo   IFR Molto Intensivo
Visibilità : 
Base nubi : 
>= 8 km
>= 3000ft
5 / 8 km
1000 / 3000 ft
1500m / 5 km
500 / 1000 ft
800 / 1500m
200 / 500 ft
< 800m
< 200 ft
Simboli :   Temporali  Nebbia  Neve Forte  Precipitazioni Forti  Vento > 20 kt
SIGMETs :   Varie  Temporali  Ghiacco  Turbolenza  Onda orograficha  Ceneri Vulcaniche






- Altitudine del aeroporto : 289 ft


LFYR - Romorantin Pruniers

ULTIMO METAR :
  • 280400Z AUTO 20003KT CAVOK 10/10 Q1021

METARs OBSOLETI :
  • 280330Z AUTO VRB01KT CAVOK 10/09 Q1021
  • 280300Z AUTO 20003KT CAVOK 10/09 Q1021
  • 280230Z AUTO 20004KT CAVOK 10/09 Q1021
  • 280200Z AUTO 21003KT CAVOK 10/10 Q1022
  • 280130Z AUTO 00000KT CAVOK 08/08 Q1022
  • 280100Z AUTO 00000KT CAVOK 08/07 Q1022
  • 280030Z AUTO 00000KT CAVOK 09/08 Q1022
  • 280000Z AUTO 22003KT CAVOK 08/08 Q1022
  • 272330Z AUTO 22002KT CAVOK 08/08 Q1022

TAF TAF LFYR
Valido dal 27 a 15 ore il 28 a 15 ore UTC


271400Z 2715/2815 22005KT 9999 BKN030
TEMPO 2715/2720 28010G20KT 4000 SHRA BKN030TCU



MetMap, La meteo Aeronautica in un colpo d'occhio ! - Copyright ORBIFLY Dicembre 2007 - Disclaimer

ORBIFLY MET'MAP TEAM :

Programmazione e sviluppo : Alexandra Zaïnal
Concezione : Baudouin d'Aumeries
Supporto tecnico e logistico : Manuel Goepfert
Aiuto : Marc-Olivier Méhu
Aiuto per la traduzione : Arnaldo La Scala




FONTI E CREDITI :

   NOAA